sensor_id;sensor_type;location;lat;lon;timestamp;P1;durP1;ratioP1;P2;durP2;ratioP2
11911;SDS011;6016;41.928;25.556;2022-12-15T00:01:07;30.55;;;15.20;;
11911;SDS011;6016;41.928;25.556;2022-12-15T00:03:52;27.27;;;13.05;;
11911;SDS011;6016;41.928;25.556;2022-12-15T00:06:36;29.05;;;12.68;;
11911;SDS011;6016;41.928;25.556;2022-12-15T00:09:22;24.63;;;12.77;;
11911;SDS011;6016;41.928;25.556;2022-12-15T00:12:06;26.40;;;12.68;;
11911;SDS011;6016;41.928;25.556;2022-12-15T00:14:50;21.40;;;10.27;;
11911;SDS011;6016;41.928;25.556;2022-12-15T00:17:35;29.45;;;12.02;;
11911;SDS011;6016;41.928;25.556;2022-12-15T00:20:19;25.23;;;11.73;;
11911;SDS011;6016;41.928;25.556;2022-12-15T00:23:07;27.55;;;12.02;;
11911;SDS011;6016;41.928;25.556;2022-12-15T00:25:53;25.50;;;10.63;;
11911;SDS011;6016;41.928;25.556;2022-12-15T00:28:37;25.75;;;11.30;;
11911;SDS011;6016;41.928;25.556;2022-12-15T00:31:21;31.63;;;12.23;;
11911;SDS011;6016;41.928;25.556;2022-12-15T00:34:06;26.58;;;11.43;;
11911;SDS011;6016;41.928;25.556;2022-12-15T00:36:52;23.27;;;10.68;;
11911;SDS011;6016;41.928;25.556;2022-12-15T00:39:36;22.73;;;10.70;;
11911;SDS011;6016;41.928;25.556;2022-12-15T00:42:05;20.75;;;9.65;;
11911;SDS011;6016;41.928;25.556;2022-12-15T00:44:33;21.92;;;9.63;;
11911;SDS011;6016;41.928;25.556;2022-12-15T00:47:01;18.02;;;9.73;;
11911;SDS011;6016;41.928;25.556;2022-12-15T00:49:28;21.85;;;9.73;;
11911;SDS011;6016;41.928;25.556;2022-12-15T00:52:14;16.70;;;8.52;;
11911;SDS011;6016;41.928;25.556;2022-12-15T00:54:59;15.23;;;8.73;;
11911;SDS011;6016;41.928;25.556;2022-12-15T00:57:45;19.02;;;8.95;;
11911;SDS011;6016;41.928;25.556;2022-12-15T01:00:29;15.25;;;8.38;;
11911;SDS011;6016;41.928;25.556;2022-12-15T01:03:14;16.70;;;8.63;;
11911;SDS011;6016;41.928;25.556;2022-12-15T01:05:59;16.83;;;8.45;;
11911;SDS011;6016;41.928;25.556;2022-12-15T01:08:47;15.85;;;8.63;;
11911;SDS011;6016;41.928;25.556;2022-12-15T01:11:31;17.85;;;9.05;;
11911;SDS011;6016;41.928;25.556;2022-12-15T01:14:16;19.85;;;9.50;;
11911;SDS011;6016;41.928;25.556;2022-12-15T01:17:01;17.17;;;9.43;;
11911;SDS011;6016;41.928;25.556;2022-12-15T01:19:45;19.60;;;10.13;;
11911;SDS011;6016;41.928;25.556;2022-12-15T01:22:29;22.30;;;10.57;;
11911;SDS011;6016;41.928;25.556;2022-12-15T01:24:56;18.23;;;9.40;;
11911;SDS011;6016;41.928;25.556;2022-12-15T01:27:23;19.25;;;9.55;;
11911;SDS011;6016;41.928;25.556;2022-12-15T01:29:51;18.77;;;8.23;;
11911;SDS011;6016;41.928;25.556;2022-12-15T01:32:18;17.35;;;8.90;;
11911;SDS011;6016;41.928;25.556;2022-12-15T01:34:45;20.38;;;8.98;;
11911;SDS011;6016;41.928;25.556;2022-12-15T01:37:12;16.30;;;7.72;;
11911;SDS011;6016;41.928;25.556;2022-12-15T01:39:39;16.05;;;8.10;;
11911;SDS011;6016;41.928;25.556;2022-12-15T01:42:23;16.90;;;8.27;;
11911;SDS011;6016;41.928;25.556;2022-12-15T01:44:50;14.48;;;6.82;;
11911;SDS011;6016;41.928;25.556;2022-12-15T01:47:20;14.70;;;7.20;;
11911;SDS011;6016;41.928;25.556;2022-12-15T01:49:54;15.70;;;7.75;;
11911;SDS011;6016;41.928;25.556;2022-12-15T01:52:21;15.00;;;7.38;;
11911;SDS011;6016;41.928;25.556;2022-12-15T01:54:49;16.80;;;7.97;;
11911;SDS011;6016;41.928;25.556;2022-12-15T01:57:20;16.23;;;8.38;;
11911;SDS011;6016;41.928;25.556;2022-12-15T01:59:51;18.13;;;8.82;;
11911;SDS011;6016;41.928;25.556;2022-12-15T02:02:23;15.65;;;8.68;;
11911;SDS011;6016;41.928;25.556;2022-12-15T02:04:53;16.25;;;8.73;;
11911;SDS011;6016;41.928;25.556;2022-12-15T02:07:22;18.40;;;9.48;;
11911;SDS011;6016;41.928;25.556;2022-12-15T02:09:49;19.48;;;9.43;;
11911;SDS011;6016;41.928;25.556;2022-12-15T02:12:20;17.35;;;8.68;;
11911;SDS011;6016;41.928;25.556;2022-12-15T02:15:00;18.73;;;10.13;;
11911;SDS011;6016;41.928;25.556;2022-12-15T02:17:40;15.60;;;7.70;;
11911;SDS011;6016;41.928;25.556;2022-12-15T02:23:32;17.42;;;8.27;;
11911;SDS011;6016;41.928;25.556;2022-12-15T02:26:36;15.48;;;7.38;;
11911;SDS011;6016;41.928;25.556;2022-12-15T02:29:23;19.48;;;7.90;;
11911;SDS011;6016;41.928;25.556;2022-12-15T02:32:06;15.88;;;8.43;;
11911;SDS011;6016;41.928;25.556;2022-12-15T02:34:39;17.17;;;8.25;;
11911;SDS011;6016;41.928;25.556;2022-12-15T02:37:09;15.80;;;8.57;;
11911;SDS011;6016;41.928;25.556;2022-12-15T02:39:39;16.10;;;8.02;;
11911;SDS011;6016;41.928;25.556;2022-12-15T02:42:07;18.38;;;8.88;;
11911;SDS011;6016;41.928;25.556;2022-12-15T02:44:37;19.48;;;9.27;;
11911;SDS011;6016;41.928;25.556;2022-12-15T02:47:12;23.90;;;11.57;;
11911;SDS011;6016;41.928;25.556;2022-12-15T02:49:48;23.58;;;12.07;;
11911;SDS011;6016;41.928;25.556;2022-12-15T02:52:29;29.42;;;13.70;;
11911;SDS011;6016;41.928;25.556;2022-12-15T02:55:12;26.50;;;13.98;;
11911;SDS011;6016;41.928;25.556;2022-12-15T02:57:49;26.13;;;13.88;;
11911;SDS011;6016;41.928;25.556;2022-12-15T03:00:20;31.17;;;16.13;;
11911;SDS011;6016;41.928;25.556;2022-12-15T03:02:50;33.05;;;16.83;;
11911;SDS011;6016;41.928;25.556;2022-12-15T03:05:19;31.33;;;16.05;;
11911;SDS011;6016;41.928;25.556;2022-12-15T03:07:48;34.53;;;16.90;;
11911;SDS011;6016;41.928;25.556;2022-12-15T03:10:16;38.75;;;17.42;;
11911;SDS011;6016;41.928;25.556;2022-12-15T03:12:43;31.98;;;16.33;;
11911;SDS011;6016;41.928;25.556;2022-12-15T03:15:10;31.88;;;16.17;;
11911;SDS011;6016;41.928;25.556;2022-12-15T03:17:37;33.35;;;16.05;;
11911;SDS011;6016;41.928;25.556;2022-12-15T03:20:06;34.40;;;16.13;;
11911;SDS011;6016;41.928;25.556;2022-12-15T03:22:34;34.42;;;17.35;;
11911;SDS011;6016;41.928;25.556;2022-12-15T03:25:01;31.95;;;15.30;;
11911;SDS011;6016;41.928;25.556;2022-12-15T03:27:28;33.45;;;16.30;;
11911;SDS011;6016;41.928;25.556;2022-12-15T03:29:56;35.55;;;17.38;;
11911;SDS011;6016;41.928;25.556;2022-12-15T03:32:22;33.28;;;15.88;;
11911;SDS011;6016;41.928;25.556;2022-12-15T03:34:49;32.60;;;16.98;;
11911;SDS011;6016;41.928;25.556;2022-12-15T03:37:17;30.55;;;14.90;;
11911;SDS011;6016;41.928;25.556;2022-12-15T03:39:44;32.25;;;16.55;;
11911;SDS011;6016;41.928;25.556;2022-12-15T03:42:11;33.70;;;16.42;;
11911;SDS011;6016;41.928;25.556;2022-12-15T03:44:38;30.90;;;15.70;;
11911;SDS011;6016;41.928;25.556;2022-12-15T03:47:05;35.20;;;17.15;;
11911;SDS011;6016;41.928;25.556;2022-12-15T03:49:32;33.72;;;16.77;;
11911;SDS011;6016;41.928;25.556;2022-12-15T03:51:59;33.00;;;17.23;;
11911;SDS011;6016;41.928;25.556;2022-12-15T03:54:27;40.08;;;17.55;;
11911;SDS011;6016;41.928;25.556;2022-12-15T03:56:54;39.05;;;17.20;;
11911;SDS011;6016;41.928;25.556;2022-12-15T03:59:21;37.75;;;17.27;;
11911;SDS011;6016;41.928;25.556;2022-12-15T04:01:47;34.88;;;16.55;;
11911;SDS011;6016;41.928;25.556;2022-12-15T04:04:14;35.08;;;16.45;;
11911;SDS011;6016;41.928;25.556;2022-12-15T04:06:41;34.80;;;16.65;;
11911;SDS011;6016;41.928;25.556;2022-12-15T04:09:08;37.28;;;16.10;;
11911;SDS011;6016;41.928;25.556;2022-12-15T04:11:36;40.85;;;17.50;;
11911;SDS011;6016;41.928;25.556;2022-12-15T04:14:03;35.55;;;16.88;;
11911;SDS011;6016;41.928;25.556;2022-12-15T04:16:30;38.05;;;18.05;;
11911;SDS011;6016;41.928;25.556;2022-12-15T04:18:56;37.90;;;18.00;;
11911;SDS011;6016;41.928;25.556;2022-12-15T04:21:41;33.58;;;17.23;;
11911;SDS011;6016;41.928;25.556;2022-12-15T04:24:08;36.28;;;16.95;;
11911;SDS011;6016;41.928;25.556;2022-12-15T04:26:53;40.38;;;16.38;;
11911;SDS011;6016;41.928;25.556;2022-12-15T04:29:37;37.97;;;15.45;;
11911;SDS011;6016;41.928;25.556;2022-12-15T04:32:22;35.13;;;15.95;;
11911;SDS011;6016;41.928;25.556;2022-12-15T04:35:06;32.05;;;15.27;;
11911;SDS011;6016;41.928;25.556;2022-12-15T04:37:51;33.60;;;16.17;;
11911;SDS011;6016;41.928;25.556;2022-12-15T04:40:35;29.27;;;14.70;;
11911;SDS011;6016;41.928;25.556;2022-12-15T04:43:21;29.70;;;14.68;;
11911;SDS011;6016;41.928;25.556;2022-12-15T04:46:05;31.67;;;15.70;;
11911;SDS011;6016;41.928;25.556;2022-12-15T04:48:49;31.05;;;15.80;;
11911;SDS011;6016;41.928;25.556;2022-12-15T04:51:33;35.03;;;17.08;;
11911;SDS011;6016;41.928;25.556;2022-12-15T04:54:17;37.97;;;17.98;;
11911;SDS011;6016;41.928;25.556;2022-12-15T04:57:02;34.13;;;15.57;;
11911;SDS011;6016;41.928;25.556;2022-12-15T04:59:48;33.35;;;16.10;;
11911;SDS011;6016;41.928;25.556;2022-12-15T05:02:32;34.45;;;15.80;;
11911;SDS011;6016;41.928;25.556;2022-12-15T05:05:16;33.53;;;16.77;;
11911;SDS011;6016;41.928;25.556;2022-12-15T05:08:01;31.48;;;16.20;;
11911;SDS011;6016;41.928;25.556;2022-12-15T05:10:45;35.40;;;16.23;;
11911;SDS011;6016;41.928;25.556;2022-12-15T05:13:29;31.60;;;16.52;;
11911;SDS011;6016;41.928;25.556;2022-12-15T05:16:15;37.10;;;16.48;;
11911;SDS011;6016;41.928;25.556;2022-12-15T05:18:59;34.47;;;15.77;;
11911;SDS011;6016;41.928;25.556;2022-12-15T05:21:42;36.90;;;18.25;;
11911;SDS011;6016;41.928;25.556;2022-12-15T05:24:26;36.92;;;18.23;;
11911;SDS011;6016;41.928;25.556;2022-12-15T05:27:10;40.95;;;19.15;;
11911;SDS011;6016;41.928;25.556;2022-12-15T05:29:55;45.25;;;21.38;;
11911;SDS011;6016;41.928;25.556;2022-12-15T05:32:41;42.33;;;20.58;;
11911;SDS011;6016;41.928;25.556;2022-12-15T05:35:07;43.80;;;21.58;;
11911;SDS011;6016;41.928;25.556;2022-12-15T05:37:35;39.20;;;18.58;;
11911;SDS011;6016;41.928;25.556;2022-12-15T05:40:02;40.88;;;18.27;;
11911;SDS011;6016;41.928;25.556;2022-12-15T05:42:32;38.13;;;18.50;;
11911;SDS011;6016;41.928;25.556;2022-12-15T05:45:16;36.35;;;17.23;;
11911;SDS011;6016;41.928;25.556;2022-12-15T05:47:44;38.58;;;17.85;;
11911;SDS011;6016;41.928;25.556;2022-12-15T05:50:19;34.65;;;17.15;;
11911;SDS011;6016;41.928;25.556;2022-12-15T05:52:49;39.75;;;19.63;;
11911;SDS011;6016;41.928;25.556;2022-12-15T05:55:17;44.15;;;21.67;;
11911;SDS011;6016;41.928;25.556;2022-12-15T05:57:51;40.92;;;19.10;;
11911;SDS011;6016;41.928;25.556;2022-12-15T06:00:19;41.38;;;19.38;;
11911;SDS011;6016;41.928;25.556;2022-12-15T06:02:48;41.65;;;18.75;;
11911;SDS011;6016;41.928;25.556;2022-12-15T06:05:15;39.70;;;18.85;;
11911;SDS011;6016;41.928;25.556;2022-12-15T06:07:41;39.03;;;18.67;;
11911;SDS011;6016;41.928;25.556;2022-12-15T06:10:08;34.53;;;16.42;;
11911;SDS011;6016;41.928;25.556;2022-12-15T06:12:35;33.78;;;16.65;;
11911;SDS011;6016;41.928;25.556;2022-12-15T06:15:05;37.40;;;17.92;;
11911;SDS011;6016;41.928;25.556;2022-12-15T06:17:32;41.42;;;19.88;;
11911;SDS011;6016;41.928;25.556;2022-12-15T06:20:00;38.92;;;19.27;;
11911;SDS011;6016;41.928;25.556;2022-12-15T06:22:28;43.28;;;21.65;;
11911;SDS011;6016;41.928;25.556;2022-12-15T06:24:55;38.63;;;18.75;;
11911;SDS011;6016;41.928;25.556;2022-12-15T06:27:22;38.53;;;19.00;;
11911;SDS011;6016;41.928;25.556;2022-12-15T06:29:49;37.78;;;18.40;;
11911;SDS011;6016;41.928;25.556;2022-12-15T06:32:22;44.65;;;22.25;;
11911;SDS011;6016;41.928;25.556;2022-12-15T06:34:49;35.15;;;16.83;;
11911;SDS011;6016;41.928;25.556;2022-12-15T06:37:17;44.97;;;19.77;;
11911;SDS011;6016;41.928;25.556;2022-12-15T06:39:44;46.83;;;20.88;;
11911;SDS011;6016;41.928;25.556;2022-12-15T06:42:17;53.10;;;21.77;;
11911;SDS011;6016;41.928;25.556;2022-12-15T06:44:44;53.38;;;21.45;;
11911;SDS011;6016;41.928;25.556;2022-12-15T06:47:10;53.50;;;23.67;;
11911;SDS011;6016;41.928;25.556;2022-12-15T06:49:44;53.47;;;24.08;;
11911;SDS011;6016;41.928;25.556;2022-12-15T06:52:37;68.65;;;27.98;;
11911;SDS011;6016;41.928;25.556;2022-12-15T06:55:12;61.10;;;25.50;;
11911;SDS011;6016;41.928;25.556;2022-12-15T06:57:41;67.88;;;29.17;;
11911;SDS011;6016;41.928;25.556;2022-12-15T07:00:22;64.25;;;27.90;;
11911;SDS011;6016;41.928;25.556;2022-12-15T07:02:52;53.22;;;21.63;;
11911;SDS011;6016;41.928;25.556;2022-12-15T07:05:20;70.93;;;27.83;;
11911;SDS011;6016;41.928;25.556;2022-12-15T07:08:05;76.80;;;31.10;;
11911;SDS011;6016;41.928;25.556;2022-12-15T07:10:39;69.05;;;26.02;;
11911;SDS011;6016;41.928;25.556;2022-12-15T07:13:15;70.18;;;26.33;;
11911;SDS011;6016;41.928;25.556;2022-12-15T07:16:01;74.07;;;27.88;;
11911;SDS011;6016;41.928;25.556;2022-12-15T07:18:38;109.13;;;41.75;;
11911;SDS011;6016;41.928;25.556;2022-12-15T07:21:08;82.25;;;28.92;;
11911;SDS011;6016;41.928;25.556;2022-12-15T07:23:45;72.22;;;27.90;;
11911;SDS011;6016;41.928;25.556;2022-12-15T07:26:27;73.47;;;27.38;;
11911;SDS011;6016;41.928;25.556;2022-12-15T07:28:56;80.20;;;37.17;;
11911;SDS011;6016;41.928;25.556;2022-12-15T07:31:29;79.55;;;28.60;;
11911;SDS011;6016;41.928;25.556;2022-12-15T07:34:05;74.15;;;29.42;;
11911;SDS011;6016;41.928;25.556;2022-12-15T07:36:32;67.85;;;25.50;;
11911;SDS011;6016;41.928;25.556;2022-12-15T07:39:00;67.57;;;32.70;;
11911;SDS011;6016;41.928;25.556;2022-12-15T07:41:30;65.53;;;25.83;;
11911;SDS011;6016;41.928;25.556;2022-12-15T07:43:57;68.93;;;30.23;;
11911;SDS011;6016;41.928;25.556;2022-12-15T07:46:26;67.47;;;28.23;;
11911;SDS011;6016;41.928;25.556;2022-12-15T07:48:53;109.82;;;40.53;;
11911;SDS011;6016;41.928;25.556;2022-12-15T07:51:20;84.60;;;32.15;;
11911;SDS011;6016;41.928;25.556;2022-12-15T07:53:47;76.55;;;34.33;;
11911;SDS011;6016;41.928;25.556;2022-12-15T07:56:19;69.22;;;27.20;;
11911;SDS011;6016;41.928;25.556;2022-12-15T07:58:46;64.97;;;24.65;;
11911;SDS011;6016;41.928;25.556;2022-12-15T08:01:14;53.55;;;22.63;;
11911;SDS011;6016;41.928;25.556;2022-12-15T08:03:41;65.22;;;28.70;;
11911;SDS011;6016;41.928;25.556;2022-12-15T08:06:09;68.40;;;27.85;;
11911;SDS011;6016;41.928;25.556;2022-12-15T08:08:38;48.88;;;20.67;;
11911;SDS011;6016;41.928;25.556;2022-12-15T08:11:05;48.30;;;20.45;;
11911;SDS011;6016;41.928;25.556;2022-12-15T08:13:35;49.88;;;22.05;;
11911;SDS011;6016;41.928;25.556;2022-12-15T08:16:03;45.13;;;20.98;;
11911;SDS011;6016;41.928;25.556;2022-12-15T08:18:30;40.38;;;19.17;;
11911;SDS011;6016;41.928;25.556;2022-12-15T08:21:00;45.30;;;21.35;;
11911;SDS011;6016;41.928;25.556;2022-12-15T08:23:27;42.47;;;18.13;;
11911;SDS011;6016;41.928;25.556;2022-12-15T08:26:00;45.00;;;19.85;;
11911;SDS011;6016;41.928;25.556;2022-12-15T08:28:27;46.83;;;19.40;;
11911;SDS011;6016;41.928;25.556;2022-12-15T08:30:56;57.10;;;28.00;;
11911;SDS011;6016;41.928;25.556;2022-12-15T08:33:28;46.72;;;22.23;;
11911;SDS011;6016;41.928;25.556;2022-12-15T08:35:56;50.35;;;22.67;;
11911;SDS011;6016;41.928;25.556;2022-12-15T08:38:23;39.40;;;18.73;;
11911;SDS011;6016;41.928;25.556;2022-12-15T08:40:50;44.92;;;19.05;;
11911;SDS011;6016;41.928;25.556;2022-12-15T08:43:17;42.55;;;19.58;;
11911;SDS011;6016;41.928;25.556;2022-12-15T08:45:44;41.40;;;19.48;;
11911;SDS011;6016;41.928;25.556;2022-12-15T08:48:12;42.15;;;19.10;;
11911;SDS011;6016;41.928;25.556;2022-12-15T08:50:41;38.70;;;18.20;;
11911;SDS011;6016;41.928;25.556;2022-12-15T08:53:09;39.08;;;18.33;;
11911;SDS011;6016;41.928;25.556;2022-12-15T08:55:36;48.05;;;22.02;;
11911;SDS011;6016;41.928;25.556;2022-12-15T08:58:04;38.53;;;16.85;;
11911;SDS011;6016;41.928;25.556;2022-12-15T09:00:31;41.42;;;19.35;;
11911;SDS011;6016;41.928;25.556;2022-12-15T09:02:58;56.17;;;24.88;;
11911;SDS011;6016;41.928;25.556;2022-12-15T09:05:26;37.92;;;17.15;;
11911;SDS011;6016;41.928;25.556;2022-12-15T09:07:53;39.20;;;18.55;;
11911;SDS011;6016;41.928;25.556;2022-12-15T09:10:21;37.55;;;17.85;;
11911;SDS011;6016;41.928;25.556;2022-12-15T09:12:48;37.30;;;17.27;;
11911;SDS011;6016;41.928;25.556;2022-12-15T09:15:15;39.50;;;17.73;;
11911;SDS011;6016;41.928;25.556;2022-12-15T09:17:42;42.00;;;18.25;;
11911;SDS011;6016;41.928;25.556;2022-12-15T09:20:09;47.13;;;20.48;;
11911;SDS011;6016;41.928;25.556;2022-12-15T09:22:38;38.17;;;17.77;;
11911;SDS011;6016;41.928;25.556;2022-12-15T09:25:05;56.72;;;24.60;;
11911;SDS011;6016;41.928;25.556;2022-12-15T09:27:33;43.67;;;19.42;;
11911;SDS011;6016;41.928;25.556;2022-12-15T09:30:00;41.97;;;21.02;;
11911;SDS011;6016;41.928;25.556;2022-12-15T09:32:27;36.05;;;16.45;;
11911;SDS011;6016;41.928;25.556;2022-12-15T09:34:54;38.55;;;16.98;;
11911;SDS011;6016;41.928;25.556;2022-12-15T09:37:21;69.25;;;27.38;;
11911;SDS011;6016;41.928;25.556;2022-12-15T09:39:49;60.58;;;24.30;;
11911;SDS011;6016;41.928;25.556;2022-12-15T09:42:21;60.40;;;25.02;;
11911;SDS011;6016;41.928;25.556;2022-12-15T09:44:51;39.33;;;18.23;;
11911;SDS011;6016;41.928;25.556;2022-12-15T09:47:28;37.22;;;18.15;;
11911;SDS011;6016;41.928;25.556;2022-12-15T09:50:02;41.58;;;19.20;;
11911;SDS011;6016;41.928;25.556;2022-12-15T09:52:32;39.63;;;18.95;;
11911;SDS011;6016;41.928;25.556;2022-12-15T09:55:14;38.58;;;16.35;;
11911;SDS011;6016;41.928;25.556;2022-12-15T09:57:45;38.13;;;17.63;;
11911;SDS011;6016;41.928;25.556;2022-12-15T10:00:17;33.28;;;17.20;;
11911;SDS011;6016;41.928;25.556;2022-12-15T10:06:02;45.75;;;20.75;;
11911;SDS011;6016;41.928;25.556;2022-12-15T10:08:33;42.90;;;18.92;;
11911;SDS011;6016;41.928;25.556;2022-12-15T10:11:10;48.03;;;21.45;;
11911;SDS011;6016;41.928;25.556;2022-12-15T10:13:43;41.33;;;18.50;;
11911;SDS011;6016;41.928;25.556;2022-12-15T10:16:17;37.28;;;17.52;;
11911;SDS011;6016;41.928;25.556;2022-12-15T10:18:56;38.75;;;19.10;;
11911;SDS011;6016;41.928;25.556;2022-12-15T10:21:31;36.78;;;17.25;;
11911;SDS011;6016;41.928;25.556;2022-12-15T10:23:58;38.80;;;17.40;;
11911;SDS011;6016;41.928;25.556;2022-12-15T10:26:37;33.17;;;16.55;;
11911;SDS011;6016;41.928;25.556;2022-12-15T10:29:12;32.50;;;15.77;;
11911;SDS011;6016;41.928;25.556;2022-12-15T10:31:49;41.90;;;19.30;;
11911;SDS011;6016;41.928;25.556;2022-12-15T10:34:23;38.75;;;17.80;;
11911;SDS011;6016;41.928;25.556;2022-12-15T10:36:52;37.22;;;17.58;;
11911;SDS011;6016;41.928;25.556;2022-12-15T10:39:20;34.35;;;16.00;;
11911;SDS011;6016;41.928;25.556;2022-12-15T10:44:38;33.00;;;16.00;;
11911;SDS011;6016;41.928;25.556;2022-12-15T10:47:10;32.80;;;16.02;;
11911;SDS011;6016;41.928;25.556;2022-12-15T10:49:42;30.48;;;14.13;;
11911;SDS011;6016;41.928;25.556;2022-12-15T10:52:14;29.45;;;14.32;;
11911;SDS011;6016;41.928;25.556;2022-12-15T10:54:45;26.67;;;13.40;;
11911;SDS011;6016;41.928;25.556;2022-12-15T10:57:16;30.27;;;14.35;;
11911;SDS011;6016;41.928;25.556;2022-12-15T10:59:46;31.00;;;15.30;;
11911;SDS011;6016;41.928;25.556;2022-12-15T11:02:26;31.17;;;14.50;;
11911;SDS011;6016;41.928;25.556;2022-12-15T11:04:58;28.90;;;13.70;;
11911;SDS011;6016;41.928;25.556;2022-12-15T11:07:27;27.15;;;13.38;;
11911;SDS011;6016;41.928;25.556;2022-12-15T11:10:01;54.88;;;28.90;;
11911;SDS011;6016;41.928;25.556;2022-12-15T11:12:40;29.63;;;14.95;;
11911;SDS011;6016;41.928;25.556;2022-12-15T11:15:33;25.45;;;12.73;;
11911;SDS011;6016;41.928;25.556;2022-12-15T11:18:08;30.58;;;14.50;;
11911;SDS011;6016;41.928;25.556;2022-12-15T11:20:42;29.95;;;14.80;;
11911;SDS011;6016;41.928;25.556;2022-12-15T11:23:15;29.05;;;15.32;;
11911;SDS011;6016;41.928;25.556;2022-12-15T11:25:47;33.47;;;14.60;;
11911;SDS011;6016;41.928;25.556;2022-12-15T11:28:22;33.75;;;14.18;;
11911;SDS011;6016;41.928;25.556;2022-12-15T11:30:55;47.35;;;17.98;;
11911;SDS011;6016;41.928;25.556;2022-12-15T11:33:25;38.85;;;16.73;;
11911;SDS011;6016;41.928;25.556;2022-12-15T11:35:56;34.90;;;16.00;;
11911;SDS011;6016;41.928;25.556;2022-12-15T11:38:36;33.85;;;15.70;;
11911;SDS011;6016;41.928;25.556;2022-12-15T11:41:10;37.53;;;17.70;;
11911;SDS011;6016;41.928;25.556;2022-12-15T11:43:55;44.83;;;18.02;;
11911;SDS011;6016;41.928;25.556;2022-12-15T11:46:39;38.92;;;18.08;;
11911;SDS011;6016;41.928;25.556;2022-12-15T11:52:06;40.47;;;18.17;;
11911;SDS011;6016;41.928;25.556;2022-12-15T11:54:43;36.20;;;16.77;;
11911;SDS011;6016;41.928;25.556;2022-12-15T11:57:21;36.97;;;18.20;;
11911;SDS011;6016;41.928;25.556;2022-12-15T12:00:08;39.00;;;16.97;;
11911;SDS011;6016;41.928;25.556;2022-12-15T12:05:38;41.75;;;19.45;;
11911;SDS011;6016;41.928;25.556;2022-12-15T12:11:31;41.30;;;19.13;;
11911;SDS011;6016;41.928;25.556;2022-12-15T12:14:11;50.03;;;20.45;;
11911;SDS011;6016;41.928;25.556;2022-12-15T12:16:48;36.33;;;16.77;;
11911;SDS011;6016;41.928;25.556;2022-12-15T12:19:22;33.80;;;15.75;;
11911;SDS011;6016;41.928;25.556;2022-12-15T12:21:54;29.23;;;14.35;;
11911;SDS011;6016;41.928;25.556;2022-12-15T12:26:56;29.60;;;14.57;;
11911;SDS011;6016;41.928;25.556;2022-12-15T12:29:27;39.50;;;18.08;;
11911;SDS011;6016;41.928;25.556;2022-12-15T12:32:03;41.10;;;18.15;;
11911;SDS011;6016;41.928;25.556;2022-12-15T12:34:39;33.15;;;16.10;;
11911;SDS011;6016;41.928;25.556;2022-12-15T12:37:22;29.40;;;14.55;;
11911;SDS011;6016;41.928;25.556;2022-12-15T12:39:55;32.97;;;15.10;;
11911;SDS011;6016;41.928;25.556;2022-12-15T12:42:29;40.63;;;18.05;;
11911;SDS011;6016;41.928;25.556;2022-12-15T12:45:01;37.22;;;16.50;;
11911;SDS011;6016;41.928;25.556;2022-12-15T12:47:30;33.47;;;15.05;;
11911;SDS011;6016;41.928;25.556;2022-12-15T12:50:01;31.75;;;14.95;;
11911;SDS011;6016;41.928;25.556;2022-12-15T12:52:33;29.58;;;14.13;;
11911;SDS011;6016;41.928;25.556;2022-12-15T12:55:03;42.50;;;24.38;;
11911;SDS011;6016;41.928;25.556;2022-12-15T12:57:47;38.60;;;17.83;;
11911;SDS011;6016;41.928;25.556;2022-12-15T13:00:16;32.95;;;15.93;;
11911;SDS011;6016;41.928;25.556;2022-12-15T13:03:08;35.55;;;15.60;;
11911;SDS011;6016;41.928;25.556;2022-12-15T13:05:42;29.70;;;14.52;;
11911;SDS011;6016;41.928;25.556;2022-12-15T13:08:45;31.85;;;14.73;;
11911;SDS011;6016;41.928;25.556;2022-12-15T13:14:29;35.70;;;16.80;;
11911;SDS011;6016;41.928;25.556;2022-12-15T13:17:03;31.55;;;14.98;;
11911;SDS011;6016;41.928;25.556;2022-12-15T13:22:47;32.42;;;16.33;;
11911;SDS011;6016;41.928;25.556;2022-12-15T13:28:16;36.35;;;15.40;;
11911;SDS011;6016;41.928;25.556;2022-12-15T13:34:10;32.30;;;14.52;;
11911;SDS011;6016;41.928;25.556;2022-12-15T13:36:44;31.83;;;14.52;;
11911;SDS011;6016;41.928;25.556;2022-12-15T13:39:35;36.08;;;16.90;;
11911;SDS011;6016;41.928;25.556;2022-12-15T13:42:29;34.40;;;14.82;;
11911;SDS011;6016;41.928;25.556;2022-12-15T13:48:12;37.67;;;17.48;;
11911;SDS011;6016;41.928;25.556;2022-12-15T13:50:46;35.67;;;16.80;;
11911;SDS011;6016;41.928;25.556;2022-12-15T13:53:19;34.80;;;15.20;;
11911;SDS011;6016;41.928;25.556;2022-12-15T13:55:56;34.00;;;15.05;;
11911;SDS011;6016;41.928;25.556;2022-12-15T13:58:29;35.53;;;16.55;;
11911;SDS011;6016;41.928;25.556;2022-12-15T14:01:15;35.95;;;16.15;;
11911;SDS011;6016;41.928;25.556;2022-12-15T14:03:54;37.33;;;16.58;;
11911;SDS011;6016;41.928;25.556;2022-12-15T14:06:23;40.92;;;18.23;;
11911;SDS011;6016;41.928;25.556;2022-12-15T14:08:52;34.10;;;16.13;;
11911;SDS011;6016;41.928;25.556;2022-12-15T14:11:21;34.80;;;16.20;;
11911;SDS011;6016;41.928;25.556;2022-12-15T14:13:49;40.20;;;17.73;;
11911;SDS011;6016;41.928;25.556;2022-12-15T14:16:17;39.05;;;18.40;;
11911;SDS011;6016;41.928;25.556;2022-12-15T14:18:45;37.25;;;18.20;;
11911;SDS011;6016;41.928;25.556;2022-12-15T14:21:28;51.17;;;20.58;;
11911;SDS011;6016;41.928;25.556;2022-12-15T14:23:56;46.83;;;19.65;;
11911;SDS011;6016;41.928;25.556;2022-12-15T14:26:26;47.50;;;18.42;;
11911;SDS011;6016;41.928;25.556;2022-12-15T14:28:59;45.53;;;19.20;;
11911;SDS011;6016;41.928;25.556;2022-12-15T14:31:27;41.90;;;18.92;;
11911;SDS011;6016;41.928;25.556;2022-12-15T14:33:57;43.08;;;19.63;;
11911;SDS011;6016;41.928;25.556;2022-12-15T14:38:56;88.95;;;36.17;;
11911;SDS011;6016;41.928;25.556;2022-12-15T14:41:29;61.08;;;27.13;;
11911;SDS011;6016;41.928;25.556;2022-12-15T14:43:59;106.22;;;45.42;;
11911;SDS011;6016;41.928;25.556;2022-12-15T14:46:29;96.70;;;41.40;;
11911;SDS011;6016;41.928;25.556;2022-12-15T14:48:57;94.38;;;41.70;;
11911;SDS011;6016;41.928;25.556;2022-12-15T14:51:28;93.95;;;41.35;;
11911;SDS011;6016;41.928;25.556;2022-12-15T14:53:57;99.30;;;43.25;;
11911;SDS011;6016;41.928;25.556;2022-12-15T14:56:25;100.20;;;43.20;;
11911;SDS011;6016;41.928;25.556;2022-12-15T14:58:57;100.55;;;43.45;;
11911;SDS011;6016;41.928;25.556;2022-12-15T15:01:28;136.35;;;61.70;;
11911;SDS011;6016;41.928;25.556;2022-12-15T15:03:59;147.80;;;72.90;;
11911;SDS011;6016;41.928;25.556;2022-12-15T15:06:29;193.95;;;110.70;;
11911;SDS011;6016;41.928;25.556;2022-12-15T15:09:02;116.40;;;56.75;;
11911;SDS011;6016;41.928;25.556;2022-12-15T15:11:40;114.30;;;56.35;;
11911;SDS011;6016;41.928;25.556;2022-12-15T15:14:11;116.05;;;55.65;;
11911;SDS011;6016;41.928;25.556;2022-12-15T15:16:42;124.15;;;57.92;;
11911;SDS011;6016;41.928;25.556;2022-12-15T15:19:10;111.65;;;54.97;;
11911;SDS011;6016;41.928;25.556;2022-12-15T15:21:46;111.07;;;50.75;;
11911;SDS011;6016;41.928;25.556;2022-12-15T15:24:21;98.78;;;45.45;;
11911;SDS011;6016;41.928;25.556;2022-12-15T15:26:50;93.22;;;43.40;;
11911;SDS011;6016;41.928;25.556;2022-12-15T15:29:32;90.68;;;41.15;;
11911;SDS011;6016;41.928;25.556;2022-12-15T15:32:05;87.80;;;39.90;;
11911;SDS011;6016;41.928;25.556;2022-12-15T15:34:39;86.93;;;39.40;;
11911;SDS011;6016;41.928;25.556;2022-12-15T15:37:08;115.78;;;52.95;;
11911;SDS011;6016;41.928;25.556;2022-12-15T15:39:41;109.43;;;50.47;;